Bristol, Tennessee
Current Conditions -  °F | °C
As of 11:55 AM on Thursday 23 Oct 2014 (Local Time) from KVJI Reporting Station
Overcast Overcast  
Wind Chill:   Ceiling: 2300
Heat Index:   Visibility: 10mi
Dew Point:   Wind: 6mph
Humidity: 68%   Direction: 10°N
Pressure: 30.2"   Gusts: NA
Location:  36.59°N, 82.22°W
Report Text: KVJI 231555Z AUTO 01005KT 10SM OVC023 10/04 A3020 RMK AO2 T00950038
Loading
Personal Weather Stations






























Interactive Weather Map
Tropical Storm Tracking
New forecast layout! Learn more

10-Day Weather Forecast

Advertisements
Track Severe Weather on mobile